createdAt,value
2022-10-01T00:02:15.559Z,86.77
2022-10-01T00:07:16.762Z,86.46
2022-10-01T00:12:17.995Z,86.75
2022-10-01T00:17:19.017Z,86.81
2022-10-01T00:22:20.150Z,86.90
2022-10-01T00:27:21.155Z,86.96
2022-10-01T00:32:23.673Z,87.00
2022-10-01T00:37:24.815Z,87.32
2022-10-01T00:42:27.264Z,87.51
2022-10-01T00:47:34.293Z,87.62
2022-10-01T00:52:40.015Z,87.76
2022-10-01T00:57:44.218Z,87.83
2022-10-01T01:02:45.695Z,87.81
2022-10-01T01:07:49.753Z,87.65
2022-10-01T01:12:54.978Z,87.76
2022-10-01T01:18:10.215Z,87.88
2022-10-01T01:23:14.192Z,88.03
2022-10-01T01:28:38.531Z,88.06
2022-10-01T01:33:44.270Z,88.34
2022-10-01T01:38:57.757Z,88.38
2022-10-01T01:44:02.285Z,88.29
2022-10-01T01:49:04.768Z,88.36
2022-10-01T01:54:06.319Z,88.31
2022-10-01T01:59:07.834Z,88.19
2022-10-01T02:04:15.295Z,87.92
2022-10-01T02:09:38.862Z,87.81
2022-10-01T02:14:53.520Z,87.94
2022-10-01T02:20:17.418Z,87.79
2022-10-01T02:25:26.124Z,87.68
2022-10-01T02:30:30.683Z,87.58
2022-10-01T02:35:34.648Z,87.81
2022-10-01T02:40:41.087Z,88.11
2022-10-01T02:45:45.943Z,88.35
2022-10-01T02:51:01.325Z,88.21
2022-10-01T02:56:05.138Z,88.57
2022-10-01T03:01:06.895Z,88.80
2022-10-01T03:06:07.952Z,89.03
2022-10-01T03:11:09.030Z,89.45
2022-10-01T03:16:10.108Z,89.72
2022-10-01T03:21:11.161Z,89.84
2022-10-01T03:26:12.220Z,90.39
2022-10-01T03:31:13.384Z,90.34
2022-10-01T03:36:14.700Z,90.19
2022-10-01T03:41:15.836Z,89.86
2022-10-01T03:46:17.359Z,90.09
2022-10-01T03:51:21.300Z,89.85
2022-10-01T03:56:22.627Z,89.46
2022-10-01T04:01:25.181Z,89.36
2022-10-01T04:06:26.378Z,89.33
2022-10-01T04:11:27.435Z,89.46
2022-10-01T04:16:28.552Z,89.32
2022-10-01T04:21:30.610Z,89.27
2022-10-01T04:26:31.903Z,89.67
2022-10-01T04:31:34.398Z,90.05
2022-10-01T04:36:35.839Z,90.38
2022-10-01T04:41:38.481Z,90.57
2022-10-01T04:46:39.965Z,91.00
2022-10-01T04:51:41.151Z,91.01
2022-10-01T04:56:42.314Z,91.23
2022-10-01T05:01:43.492Z,91.09
2022-10-01T05:06:44.711Z,90.48
2022-10-01T05:11:46.074Z,90.41
2022-10-01T05:16:47.259Z,90.75
2022-10-01T05:21:48.308Z,91.19
2022-10-01T05:26:49.388Z,91.02
2022-10-01T05:31:50.561Z,90.78
2022-10-01T05:36:51.669Z,90.48
2022-10-01T05:41:54.762Z,90.60
2022-10-01T05:46:55.896Z,90.85
2022-10-01T05:51:58.000Z,90.85
2022-10-01T05:56:59.076Z,90.64
2022-10-01T06:02:00.686Z,90.61
2022-10-01T06:07:01.856Z,90.38
2022-10-01T06:12:09.033Z,90.56
2022-10-01T06:17:10.132Z,90.35
2022-10-01T06:22:12.246Z,90.07
2022-10-01T06:27:13.339Z,89.18
2022-10-01T06:32:18.918Z,88.36
2022-10-01T06:37:20.205Z,87.31
2022-10-01T06:42:23.245Z,86.08
2022-10-01T06:47:24.509Z,84.64
2022-10-01T06:52:44.346Z,82.76
2022-10-01T06:57:46.141Z,81.11
2022-10-01T07:02:47.513Z,78.93
2022-10-01T07:07:48.693Z,77.76
2022-10-01T07:12:50.497Z,76.93
2022-10-01T07:17:53.258Z,75.04
2022-10-01T07:22:59.064Z,73.27
2022-10-01T07:28:06.644Z,71.14
2022-10-01T07:33:07.837Z,69.70
2022-10-01T07:38:09.341Z,66.98
2022-10-01T07:43:10.995Z,65.85
2022-10-01T07:48:14.293Z,64.06
2022-10-01T07:53:16.546Z,62.67
2022-10-01T07:58:18.067Z,63.18
2022-10-01T08:03:19.160Z,61.13
2022-10-01T08:08:20.383Z,60.50
2022-10-01T08:13:24.101Z,61.32
2022-10-01T08:18:25.254Z,61.87
2022-10-01T08:23:26.358Z,63.05
2022-10-01T08:28:27.667Z,62.77
2022-10-01T08:33:28.814Z,62.95
2022-10-01T08:38:29.951Z,61.03
2022-10-01T08:43:36.437Z,59.43
2022-10-01T08:48:43.164Z,60.71
2022-10-01T08:53:54.363Z,60.19
2022-10-01T08:58:58.896Z,59.57
2022-10-01T09:04:00.289Z,59.20
2022-10-01T09:09:23.041Z,58.39
2022-10-01T09:14:29.905Z,59.38
2022-10-01T09:19:56.033Z,58.63
2022-10-01T09:25:23.615Z,57.19
2022-10-01T09:30:25.487Z,57.44
2022-10-01T09:35:38.055Z,57.34
2022-10-01T09:40:45.857Z,56.83
2022-10-01T09:45:47.042Z,55.41
2022-10-01T09:50:57.503Z,54.41
2022-10-01T09:56:04.768Z,55.54
2022-10-01T10:01:19.888Z,55.56
2022-10-01T10:06:27.489Z,54.66
2022-10-01T10:11:31.408Z,54.70
2022-10-01T10:16:36.683Z,55.98
2022-10-01T10:21:51.192Z,55.32
2022-10-01T10:26:57.737Z,54.13
2022-10-01T10:32:03.665Z,53.92
2022-10-01T10:37:13.078Z,54.01
2022-10-01T10:42:15.011Z,53.72
2022-10-01T10:47:19.541Z,54.10
2022-10-01T10:52:29.554Z,54.80
2022-10-01T10:57:33.481Z,55.01
2022-10-01T11:02:34.657Z,53.97
2022-10-01T11:07:35.849Z,52.88
2022-10-01T11:13:08.245Z,53.33
2022-10-01T11:18:15.184Z,53.19
2022-10-01T11:23:39.621Z,52.46
2022-10-01T11:29:11.500Z,52.48
2022-10-01T11:34:26.671Z,52.76
2022-10-01T11:39:31.313Z,53.16
2022-10-01T11:45:20.576Z,52.61
2022-10-01T11:50:28.091Z,52.55
2022-10-01T11:55:58.905Z,51.29
2022-10-01T12:01:06.516Z,51.56
2022-10-01T12:06:14.039Z,51.41
2022-10-01T12:11:28.640Z,51.91
2022-10-01T12:16:46.311Z,53.05
2022-10-01T12:21:58.770Z,53.19
2022-10-01T12:27:28.746Z,53.02
2022-10-01T12:33:05.947Z,53.66
2022-10-01T12:38:31.925Z,53.17
2022-10-01T12:43:46.602Z,52.77
2022-10-01T12:49:11.994Z,52.84
2022-10-01T12:54:33.779Z,52.55
2022-10-01T12:59:50.396Z,53.25
2022-10-01T13:05:16.145Z,53.86
2022-10-01T13:10:38.922Z,53.94
2022-10-01T13:15:46.387Z,54.19
2022-10-01T13:21:02.371Z,54.27
2022-10-01T13:26:10.419Z,54.40
2022-10-01T13:31:14.736Z,54.46
2022-10-01T13:36:31.038Z,54.11
2022-10-01T13:41:34.148Z,54.27
2022-10-01T13:46:50.504Z,54.57
2022-10-01T13:51:52.566Z,54.78
2022-10-01T13:56:54.260Z,54.39
2022-10-01T14:01:56.985Z,53.86
2022-10-01T14:07:21.312Z,53.70
2022-10-01T14:13:00.950Z,54.27
2022-10-01T14:18:22.740Z,54.18
2022-10-01T14:23:33.131Z,53.98
2022-10-01T14:28:46.278Z,54.76
2022-10-01T14:34:19.595Z,55.87
2022-10-01T14:39:29.765Z,57.15
2022-10-01T14:44:38.509Z,58.47
2022-10-01T14:49:39.787Z,59.51
2022-10-01T14:55:11.105Z,59.84
2022-10-01T15:00:17.915Z,60.62
2022-10-01T15:05:38.635Z,61.06
2022-10-01T15:10:51.564Z,61.56
2022-10-01T15:15:53.983Z,62.17
2022-10-01T15:20:59.717Z,62.55
2022-10-01T15:26:04.285Z,63.11
2022-10-01T15:31:06.601Z,63.56
2022-10-01T15:36:18.183Z,64.12
2022-10-01T15:41:33.003Z,64.69
2022-10-01T15:46:35.322Z,65.36
2022-10-01T15:51:43.504Z,66.01
2022-10-01T15:56:47.850Z,66.56
2022-10-01T16:01:49.000Z,66.91
2022-10-01T16:06:51.289Z,67.43
2022-10-01T16:11:57.956Z,68.31
2022-10-01T16:17:20.800Z,68.95
2022-10-01T16:22:30.977Z,69.49
2022-10-01T16:27:56.578Z,70.01
2022-10-01T16:33:04.808Z,70.79
2022-10-01T16:38:07.451Z,71.30
2022-10-01T16:43:16.387Z,71.92
2022-10-01T16:48:21.653Z,72.61
2022-10-01T16:53:23.997Z,72.73
2022-10-01T16:58:26.115Z,73.07
2022-10-01T17:03:27.285Z,73.63
2022-10-01T17:08:28.572Z,73.76
2022-10-01T17:13:34.853Z,74.19
2022-10-01T17:18:36.200Z,74.26
2022-10-01T17:23:37.969Z,74.43
2022-10-01T17:28:39.275Z,74.72
2022-10-01T17:33:40.283Z,74.86
2022-10-01T17:38:44.289Z,75.19
2022-10-01T17:43:45.369Z,75.32
2022-10-01T17:48:48.166Z,75.35
2022-10-01T17:53:49.691Z,75.82
2022-10-01T17:58:53.002Z,76.06
2022-10-01T18:03:56.172Z,76.33
2022-10-01T18:08:57.365Z,76.40
2022-10-01T18:14:00.821Z,76.40
2022-10-01T18:24:24.668Z,76.91
2022-10-01T18:29:26.952Z,77.27
2022-10-01T18:34:35.896Z,77.40
2022-10-01T18:39:44.287Z,77.70
2022-10-01T18:44:52.545Z,77.99
2022-10-01T18:50:13.527Z,78.16
2022-10-01T18:55:49.054Z,78.45
2022-10-01T19:00:50.200Z,78.66
2022-10-01T19:06:28.834Z,79.04
2022-10-01T19:12:07.437Z,79.13
2022-10-01T19:17:27.456Z,79.23
2022-10-01T19:22:50.653Z,79.38
2022-10-01T19:28:05.894Z,79.88
2022-10-01T19:33:11.088Z,80.31
2022-10-01T19:38:36.274Z,80.29
2022-10-01T19:43:46.569Z,80.22
2022-10-01T19:49:03.346Z,80.45
2022-10-01T19:54:16.266Z,80.75
2022-10-01T19:59:20.034Z,80.90
2022-10-01T20:04:47.021Z,81.51
2022-10-01T20:10:05.299Z,81.69
2022-10-01T20:15:38.984Z,82.11
2022-10-01T20:20:43.299Z,82.72
2022-10-01T20:26:07.052Z,84.46
2022-10-01T20:31:19.210Z,85.60
2022-10-01T20:36:35.054Z,86.43
2022-10-01T20:41:45.391Z,86.82
2022-10-01T20:46:49.762Z,87.32
2022-10-01T20:52:19.289Z,87.49
2022-10-01T20:57:45.093Z,87.86
2022-10-01T21:02:52.175Z,88.01
2022-10-01T21:07:58.573Z,88.37
2022-10-01T21:13:07.270Z,88.49
2022-10-01T21:18:35.713Z,88.60
2022-10-01T21:23:55.278Z,88.78
2022-10-01T21:29:16.078Z,89.28
2022-10-01T21:34:38.921Z,89.55
2022-10-01T21:40:17.891Z,89.77
2022-10-01T21:45:45.891Z,89.86
2022-10-01T21:50:55.240Z,89.82
2022-10-01T21:56:21.158Z,89.98
2022-10-01T22:01:38.378Z,90.19
2022-10-01T22:06:50.466Z,90.40
2022-10-01T22:11:57.548Z,90.67
2022-10-01T22:17:07.521Z,90.99
2022-10-01T22:22:13.661Z,91.20
2022-10-01T22:27:52.899Z,91.57
2022-10-01T22:33:21.043Z,91.65
2022-10-01T22:38:32.692Z,91.97
2022-10-01T22:43:35.549Z,92.09
2022-10-01T22:48:59.224Z,92.70
2022-10-01T22:54:20.878Z,92.78
2022-10-01T22:59:27.983Z,93.62
2022-10-01T23:04:39.892Z,94.10
2022-10-01T23:10:05.472Z,94.61
2022-10-01T23:15:40.252Z,94.77
2022-10-01T23:20:54.417Z,95.16
2022-10-01T23:26:11.114Z,95.42
2022-10-01T23:31:12.487Z,95.86
2022-10-01T23:36:45.678Z,96.04
2022-10-01T23:41:52.798Z,96.21
2022-10-01T23:46:55.391Z,96.58
2022-10-01T23:52:13.440Z,96.69
2022-10-01T23:57:31.399Z,96.97
